Time;durP1;ratioP1;P1;durP2;ratioP2;P2;SDS_P1;SDS_P2;PMS_P1;PMS_P2;Temp;Humidity;BMP_temperature;BMP_pressure;BME280_temperature;BME280_humidity;BME280_pressure;Samples;Min_cycle;Max_cycle;Signal;HPM_P1;HPM_P2
2024/01/24 00:02:09;;;;;;;3.67;2.10;;;;;;;7.29;100.00;100381.16;5056322;28;20202;-72
2024/01/24 00:04:38;;;;;;;4.10;1.73;;;;;;;7.42;100.00;100369.19;5056483;28;20707;-72
2024/01/24 00:07:06;;;;;;;3.30;1.50;;;;;;;7.43;100.00;100349.53;5056551;28;20202;-72
2024/01/24 00:09:35;;;;;;;2.57;1.77;;;;;;;7.41;100.00;100335.53;5056512;28;20331;-72
2024/01/24 00:12:04;;;;;;;3.83;1.80;;;;;;;7.46;100.00;100343.94;5056168;28;20677;-72
2024/01/24 00:14:34;;;;;;;4.40;1.70;;;;;;;7.43;100.00;100332.72;5056306;28;20333;-72
2024/01/24 00:17:03;;;;;;;2.23;1.90;;;;;;;7.50;100.00;100323.97;5056402;28;20206;-72
2024/01/24 00:19:31;;;;;;;2.37;1.90;;;;;;;7.47;100.00;100310.94;5056340;28;20205;-72
2024/01/24 00:22:00;;;;;;;2.97;1.90;;;;;;;7.56;100.00;100311.88;5056301;28;20202;-72
2024/01/24 00:24:28;;;;;;;3.83;1.80;;;;;;;7.57;100.00;100318.88;5056204;28;20316;-72
2024/01/24 00:26:57;;;;;;;2.50;1.80;;;;;;;7.64;100.00;100322.59;5056213;28;20209;-72
2024/01/24 00:29:25;;;;;;;4.87;2.07;;;;;;;7.69;100.00;100311.50;5056147;28;20263;-72
2024/01/24 00:31:57;;;;;;;2.70;1.90;;;;;;;7.78;100.00;100298.09;5056152;28;20281;-72
2024/01/24 00:34:25;;;;;;;4.77;2.30;;;;;;;7.88;100.00;100284.69;5055843;28;20284;-72
2024/01/24 00:36:54;;;;;;;3.53;2.03;;;;;;;8.00;100.00;100283.47;5055733;28;20644;-72
2024/01/24 00:39:22;;;;;;;6.07;2.13;;;;;;;8.05;100.00;100291.81;5055655;28;20751;-72
2024/01/24 00:41:52;;;;;;;2.80;2.10;;;;;;;8.13;100.00;100316.72;5055598;28;20551;-72
2024/01/24 00:44:21;;;;;;;2.93;2.00;;;;;;;8.24;100.00;100315.66;5055841;28;20318;-72
2024/01/24 00:46:49;;;;;;;3.20;1.90;;;;;;;8.45;100.00;100281.47;5055513;28;20575;-72
2024/01/24 00:49:19;;;;;;;2.67;1.80;;;;;;;8.50;100.00;100256.97;5055800;28;20296;-72
2024/01/24 00:51:48;;;;;;;2.03;1.80;;;;;;;8.49;100.00;100242.00;5055737;28;20202;-72
2024/01/24 00:54:16;;;;;;;3.33;1.83;;;;;;;8.56;100.00;100240.34;5055596;28;20230;-72
2024/01/24 00:56:45;;;;;;;3.57;2.23;;;;;;;8.67;100.00;100224.03;5055605;28;20280;-72
2024/01/24 00:59:13;;;;;;;2.87;1.70;;;;;;;8.56;100.00;100222.50;5055837;28;20208;-72
2024/01/24 01:01:42;;;;;;;2.00;1.60;;;;;;;8.60;100.00;100207.84;5055553;28;20296;-72
2024/01/24 01:04:10;;;;;;;1.97;1.50;;;;;;;8.56;100.00;100222.50;5055523;28;20230;-72
2024/01/24 01:06:40;;;;;;;1.87;1.70;;;;;;;8.60;100.00;100207.84;5055512;28;20218;-72
2024/01/24 01:09:09;;;;;;;1.97;1.60;;;;;;;8.61;100.00;100214.84;5054398;28;20285;-72
2024/01/24 01:11:38;;;;;;;5.47;2.27;;;;;;;8.54;100.00;100240.50;5055387;28;20213;-72
2024/01/24 01:14:06;;;;;;;7.37;1.60;;;;;;;8.49;100.00;100226.78;5054995;28;20230;-72
2024/01/24 01:16:35;;;;;;;2.73;1.40;;;;;;;8.49;100.00;100216.13;5055157;28;20578;-72
2024/01/24 01:19:03;;;;;;;3.10;1.50;;;;;;;8.50;100.00;100207.13;5055252;28;20212;-72
2024/01/24 01:21:32;;;;;;;1.80;1.50;;;;;;;8.52;100.00;100217.66;5055158;28;20202;-72
2024/01/24 01:24:02;;;;;;;2.63;1.40;;;;;;;8.56;100.00;100216.34;5054782;28;20226;-72
2024/01/24 01:26:33;;;;;;;3.07;1.60;;;;;;;8.71;100.00;100235.22;5055089;28;20297;-72
2024/01/24 01:29:02;;;;;;;1.80;1.40;;;;;;;8.68;100.00;100224.88;5055107;28;20221;-72
2024/01/24 01:31:30;;;;;;;1.67;1.47;;;;;;;8.86;100.00;100236.31;5055022;28;20288;-72
2024/01/24 01:34:00;;;;;;;3.80;1.80;;;;;;;8.94;100.00;100225.63;5054594;28;20579;-72
2024/01/24 01:36:29;;;;;;;3.07;1.40;;;;;;;9.04;100.00;100215.69;5054701;28;20230;-72
2024/01/24 01:38:58;;;;;;;2.93;1.50;;;;;;;9.09;100.00;100208.00;5054887;28;20257;-72
2024/01/24 01:41:27;;;;;;;2.10;1.90;;;;;;;9.24;100.00;100234.91;5054863;28;20206;-72
2024/01/24 01:43:56;;;;;;;5.00;1.80;;;;;;;9.34;100.00;100206.22;5054940;28;20222;-72
2024/01/24 01:46:25;;;;;;;3.17;1.80;;;;;;;9.40;100.00;100222.41;5054713;28;20285;-72
2024/01/24 01:48:56;;;;;;;2.83;2.00;;;;;;;9.38;100.00;100208.41;5054362;28;20726;-72
2024/01/24 01:51:26;;;;;;;4.17;2.13;;;;;;;9.42;100.00;100220.41;5054622;28;20195;-72
2024/01/24 01:53:55;;;;;;;4.47;2.33;;;;;;;9.48;100.00;100208.22;5054402;28;20711;-72
2024/01/24 01:56:25;;;;;;;3.33;2.07;;;;;;;9.47;100.00;100201.22;5054450;28;20663;-72
2024/01/24 01:58:57;;;;;;;2.93;2.10;;;;;;;9.46;100.00;100211.06;5054541;28;20277;-72
2024/01/24 02:01:25;;;;;;;4.77;2.20;;;;;;;9.44;100.00;100190.84;5054124;28;20635;-72
2024/01/24 02:03:54;;;;;;;5.90;2.17;;;;;;;9.45;100.00;100193.34;5054018;28;20738;-72
2024/01/24 02:06:23;;;;;;;7.20;2.50;;;;;;;9.44;100.00;100207.72;5054317;28;20206;-72
2024/01/24 02:08:52;;;;;;;4.13;2.40;;;;;;;9.44;100.00;100202.38;5054326;28;20206;-72
2024/01/24 02:11:21;;;;;;;2.90;2.40;;;;;;;9.48;100.00;100182.34;5054258;28;20206;-72
2024/01/24 02:13:49;;;;;;;3.50;2.50;;;;;;;9.51;100.00;100186.50;5054132;28;20226;-72
2024/01/24 02:16:19;;;;;;;7.07;2.57;;;;;;;9.50;100.00;100175.00;5053740;28;20604;-72
2024/01/24 02:18:49;;;;;;;5.13;2.90;;;;;;;9.54;100.00;100173.66;5054120;28;20252;-72
2024/01/24 02:21:18;;;;;;;5.07;2.40;;;;;;;9.58;100.00;100166.13;5053878;28;20214;-72
2024/01/24 02:23:48;;;;;;;4.83;2.40;;;;;;;9.55;100.00;100174.50;5053939;28;20237;-72
2024/01/24 02:26:18;;;;;;;3.43;2.30;;;;;;;9.54;100.00;100162.13;5053978;28;20301;-72
2024/01/24 02:28:46;;;;;;;2.93;2.30;;;;;;;9.61;100.00;100161.28;5053919;28;20375;-72
2024/01/24 02:31:15;;;;;;;6.37;2.47;;;;;;;9.69;100.00;100150.56;5053867;28;20206;-72
2024/01/24 02:33:43;;;;;;;3.23;2.17;;;;;;;9.67;100.00;100149.94;5053988;28;20321;-72
2024/01/24 02:36:14;;;;;;;4.07;2.43;;;;;;;9.72;100.00;100140.56;5053546;28;20231;-72
2024/01/24 02:38:43;;;;;;;6.63;2.60;;;;;;;9.71;100.00;100150.44;5053766;28;20636;-72
2024/01/24 02:41:11;;;;;;;5.67;2.60;;;;;;;9.75;100.00;100150.91;5053738;28;20297;-72
2024/01/24 02:43:41;;;;;;;4.30;2.83;;;;;;;9.73;100.00;100153.75;5053296;28;20579;-72
2024/01/24 02:46:10;;;;;;;6.13;2.87;;;;;;;9.77;100.00;100143.56;5053634;28;20240;-72
2024/01/24 02:48:38;;;;;;;6.83;2.93;;;;;;;9.77;100.00;100135.53;5053608;28;20271;-72
2024/01/24 02:51:07;;;;;;;2.93;2.33;;;;;;;9.75;100.00;100137.56;5053844;28;20252;-72
2024/01/24 02:53:35;;;;;;;6.53;2.63;;;;;;;9.64;100.00;100115.53;5053402;28;20317;-72
2024/01/24 02:56:04;;;;;;;5.97;2.70;;;;;;;9.67;100.00;100112.50;5053449;28;20313;-72
2024/01/24 02:58:33;;;;;;;3.10;2.63;;;;;;;9.67;100.00;100128.53;5053513;28;20292;-72
2024/01/24 03:01:02;;;;;;;6.43;2.50;;;;;;;9.68;100.00;100127.56;5053684;28;20213;-72
2024/01/24 03:03:31;;;;;;;5.13;2.60;;;;;;;9.75;100.00;100129.53;5053381;28;20269;-72
2024/01/24 03:06:00;;;;;;;4.83;2.70;;;;;;;9.71;100.00;100133.53;5053400;28;20209;-72
2024/01/24 03:08:28;;;;;;;6.70;2.63;;;;;;;9.70;100.00;100140.72;5053062;28;20601;-72
2024/01/24 03:10:55;;;;;;;4.90;3.00;;;;;;;9.69;100.00;100123.84;5053361;28;20305;-72
2024/01/24 03:13:24;;;;;;;5.77;2.70;;;;;;;9.72;100.00;100103.16;5053506;28;20321;-72
2024/01/24 03:15:52;;;;;;;3.57;2.63;;;;;;;9.75;100.00;100094.78;5053483;28;20213;-72
2024/01/24 03:18:23;;;;;;;4.43;2.23;;;;;;;9.76;100.00;100093.78;5053548;28;20202;-72
2024/01/24 03:20:53;;;;;;;2.93;2.40;;;;;;;9.68;100.00;100082.09;5053312;28;20187;-72
2024/01/24 03:23:24;;;;;;;3.47;2.00;;;;;;;9.71;100.00;100075.56;5053148;28;20314;-72
2024/01/24 03:25:52;;;;;;;2.90;2.20;;;;;;;9.80;100.00;100076.38;5053542;28;20201;-72
2024/01/24 03:28:21;;;;;;;2.47;1.90;;;;;;;9.83;100.00;100086.75;5053148;28;20206;-72
2024/01/24 03:30:50;;;;;;;5.87;2.30;;;;;;;9.82;100.00;100079.72;5053168;28;20206;-72
2024/01/24 03:33:18;;;;;;;2.80;2.10;;;;;;;9.87;100.00;100067.50;5054723;28;20773;-72
2024/01/24 03:35:48;;;;;;;2.20;1.87;;;;;;;9.88;100.00;100079.03;5056992;28;20214;-72
2024/01/24 03:38:17;;;;;;;3.23;2.30;;;;;;;9.98;100.00;100074.31;5057172;28;20296;-72
2024/01/24 03:40:46;;;;;;;3.67;2.00;;;;;;;9.95;100.00;100070.16;5057105;28;20202;-72
2024/01/24 03:43:16;;;;;;;3.43;2.50;;;;;;;10.01;100.00;100065.94;5057260;28;20237;-72
2024/01/24 03:45:44;;;;;;;2.87;2.00;;;;;;;10.07;100.00;100041.19;5057031;28;20236;-72
2024/01/24 03:48:13;;;;;;;2.43;1.87;;;;;;;10.15;100.00;100046.53;5056926;28;20202;-72
2024/01/24 03:50:41;;;;;;;3.03;2.20;;;;;;;10.15;100.00;100046.53;5056918;28;20213;-72
2024/01/24 03:53:11;;;;;;;2.07;1.60;;;;;;;10.26;100.00;100048.84;5056801;28;20316;-72
2024/01/24 03:55:39;;;;;;;2.03;1.70;;;;;;;10.32;100.00;100053.47;5056811;28;20297;-72
2024/01/24 03:58:08;;;;;;;4.03;1.90;;;;;;;10.27;100.00;100053.19;5056726;28;20347;-72
2024/01/24 04:00:36;;;;;;;2.90;2.10;;;;;;;10.30;100.00;100039.44;5056739;28;20300;-72
2024/01/24 04:03:05;;;;;;;2.47;2.27;;;;;;;10.52;100.00;100027.94;5056623;28;20234;-72
2024/01/24 04:05:34;;;;;;;3.10;2.53;;;;;;;10.53;100.00;100018.06;5056645;28;20206;-72
2024/01/24 04:08:02;;;;;;;3.30;2.40;;;;;;;10.44;100.00;100017.31;5056586;28;20202;-72
2024/01/24 04:10:32;;;;;;;2.77;2.50;;;;;;;10.49;100.00;100025.63;5056567;28;20213;-72
2024/01/24 04:13:00;;;;;;;3.63;2.53;;;;;;;10.49;100.00;100006.88;5056323;28;20222;-72
2024/01/24 04:15:29;;;;;;;4.40;3.17;;;;;;;10.49;100.00;100022.94;5056464;28;20210;-72
2024/01/24 04:17:59;;;;;;;4.30;3.10;;;;;;;10.47;100.00;100005.41;5056362;28;20253;-72
2024/01/24 04:20:28;;;;;;;5.73;3.07;;;;;;;10.40;100.00;100001.75;5056379;28;20213;-72
2024/01/24 04:22:57;;;;;;;5.30;3.47;;;;;;;10.57;100.00;100014.88;5056242;28;20312;-72
2024/01/24 04:25:25;;;;;;;5.00;3.47;;;;;;;10.59;100.00;100018.19;5056247;28;20240;-72
2024/01/24 04:27:55;;;;;;;4.10;3.70;;;;;;;10.57;100.00;100030.94;5056205;28;20233;-72
2024/01/24 04:30:23;;;;;;;4.23;3.10;;;;;;;10.60;100.00;100008.31;5056093;28;20206;-72
2024/01/24 04:32:52;;;;;;;3.97;3.20;;;;;;;10.61;100.00;100026.88;5056268;28;20316;-72
2024/01/24 04:35:21;;;;;;;3.27;2.80;;;;;;;10.64;100.00;100007.78;5055819;28;20217;-72
2024/01/24 04:37:49;;;;;;;3.60;2.77;;;;;;;10.74;100.00;100015.56;5056222;28;20226;-72
2024/01/24 04:40:17;;;;;;;2.93;2.60;;;;;;;10.78;100.00;100016.88;5055699;28;20650;-72
2024/01/24 04:42:46;;;;;;;2.90;2.67;;;;;;;10.80;100.00;100003.31;5055889;28;20226;-72
2024/01/24 04:45:16;;;;;;;3.77;2.60;;;;;;;10.86;100.00;100010.63;5055801;28;20217;-72
2024/01/24 04:47:45;;;;;;;3.80;2.30;;;;;;;10.85;100.00;100006.28;5055888;28;20641;-72
2024/01/24 04:50:14;;;;;;;2.37;1.90;;;;;;;10.87;100.00;100009.59;5056133;28;20209;-72
2024/01/24 04:52:43;;;;;;;2.30;2.10;;;;;;;10.85;100.00;100004.44;5055729;28;20572;-72
2024/01/24 04:55:12;;;;;;;2.43;2.20;;;;;;;10.81;100.00;100015.69;5056020;28;20206;-72
2024/01/24 04:57:41;;;;;;;2.50;2.30;;;;;;;10.81;100.00;99994.28;5055594;28;20236;-72
2024/01/24 05:00:11;;;;;;;2.50;2.30;;;;;;;10.79;100.00;99999.78;5055612;28;20271;-72
2024/01/24 05:02:42;;;;;;;3.77;2.20;;;;;;;10.79;100.00;100012.38;5055207;28;20194;-72
2024/01/24 05:05:11;;;;;;;4.87;2.30;;;;;;;10.73;100.00;100023.78;5055478;28;20624;-72
2024/01/24 05:07:40;;;;;;;4.33;2.10;;;;;;;10.71;100.00;100148.97;5055525;28;20202;-71
2024/01/24 05:10:09;;;;;;;16.50;3.47;;;;;;;10.18;100.00;100099.69;5054976;28;20676;-72
2024/01/24 05:12:37;;;;;;;13.03;2.90;;;;;;;10.07;100.00;100108.03;5055362;28;20729;-72
2024/01/24 05:15:08;;;;;;;9.27;2.43;;;;;;;9.94;100.00;100089.03;5055062;28;20570;-72
2024/01/24 05:17:40;;;;;;;10.93;2.67;;;;;;;9.82;100.00;100083.25;5055298;28;20221;-72
2024/01/24 05:20:10;;;;;;;10.07;2.73;;;;;;;9.75;100.00;100086.75;5055358;28;20217;-72
2024/01/24 05:22:39;;;;;;;10.00;3.57;;;;;;;9.68;100.00;100087.47;5055114;28;20210;-72
2024/01/24 05:25:08;;;;;;;10.87;2.33;;;;;;;9.67;100.00;100093.78;5054871;28;20743;-72
2024/01/24 05:27:37;;;;;;;12.63;2.70;;;;;;;9.66;100.00;100102.81;5055089;28;20206;-72
2024/01/24 05:30:07;;;;;;;11.87;3.20;;;;;;;9.65;100.00;100086.97;5055105;28;20206;-72
2024/01/24 05:32:54;;;;;;;12.47;3.63;;;;;;;9.63;100.00;100096.97;5054742;28;20226;-72
2024/01/24 05:35:24;;;;;;;8.97;2.90;;;;;;;9.68;100.00;100124.88;5054928;28;20214;-71
2024/01/24 05:37:52;;;;;;;10.93;2.93;;;;;;;9.69;100.00;100112.34;5054630;28;20396;-71
2024/01/24 05:40:21;;;;;;;8.07;3.27;;;;;;;9.75;100.00;100100.13;5054555;28;20706;-71
2024/01/24 05:42:50;;;;;;;11.40;4.17;;;;;;;9.77;100.00;100119.50;5054771;28;20222;-71
2024/01/24 05:45:21;;;;;;;7.37;2.80;;;;;;;9.81;100.00;100135.03;5054500;28;20684;-71
2024/01/24 05:47:49;;;;;;;11.03;3.83;;;;;;;9.80;100.00;100143.22;5054404;28;20209;-71
2024/01/24 05:50:20;;;;;;;7.97;2.80;;;;;;;9.80;100.00;100148.56;5054711;28;20248;-71
2024/01/24 05:52:49;;;;;;;6.27;2.00;;;;;;;9.83;100.00;100122.31;5054634;28;20317;-71
2024/01/24 05:55:17;;;;;;;3.57;2.00;;;;;;;9.91;100.00;100156.22;5054115;28;20245;-71
2024/01/24 05:57:47;;;;;;;6.37;1.93;;;;;;;9.91;100.00;100137.50;5054121;28;20600;-71
2024/01/24 06:00:16;;;;;;;7.10;2.07;;;;;;;9.91;100.00;100158.91;5054490;28;20208;-72
2024/01/24 06:02:47;;;;;;;5.60;1.83;;;;;;;9.92;100.00;100152.56;5054337;28;20212;-72
2024/01/24 06:05:16;;;;;;;7.50;2.30;;;;;;;10.00;100.00;100149.88;5054410;28;20190;-72
2024/01/24 06:07:49;;;;;;;6.27;2.67;;;;;;;9.98;100.00;100133.16;5054042;28;20252;-72
2024/01/24 06:10:17;;;;;;;8.33;2.50;;;;;;;9.96;100.00;100135.19;5054287;28;20198;-72
2024/01/24 06:12:46;;;;;;;6.97;2.00;;;;;;;9.95;100.00;100158.41;5054215;28;20320;-72
2024/01/24 06:15:15;;;;;;;8.73;2.33;;;;;;;10.01;100.00;100159.56;5054160;28;20263;-71
2024/01/24 06:17:43;;;;;;;7.03;2.00;;;;;;;10.01;100.00;100179.13;5054058;28;20226;-71
2024/01/24 06:20:13;;;;;;;8.37;2.00;;;;;;;10.12;100.00;100168.06;5053793;28;20651;-71
2024/01/24 06:22:42;;;;;;;8.67;2.17;;;;;;;10.14;100.00;100154.53;5054036;28;20293;-71
2024/01/24 06:25:12;;;;;;;9.50;2.47;;;;;;;10.12;100.00;100156.53;5054122;28;20240;-71
2024/01/24 06:27:42;;;;;;;9.77;2.43;;;;;;;10.09;100.00;100135.47;5053745;28;20198;-71
2024/01/24 06:30:11;;;;;;;8.03;2.37;;;;;;;10.08;100.00;100147.16;5053934;28;20233;-71
2024/01/24 06:32:51;;;;;;;12.77;2.60;;;;;;;10.07;100.00;100150.84;5053859;28;20226;-71
2024/01/24 06:35:20;;;;;;;5.40;1.70;;;;;;;10.03;100.00;100162.91;5053635;28;20275;-71
2024/01/24 06:37:49;;;;;;;9.17;2.50;;;;;;;9.99;100.00;100174.94;5053753;28;20230;-71
2024/01/24 06:40:20;;;;;;;6.87;2.10;;;;;;;9.93;100.00;100207.72;5053487;28;20205;-71
2024/01/24 06:42:50;;;;;;;10.10;2.43;;;;;;;9.88;100.00;100188.66;5053585;28;20237;-71
2024/01/24 06:45:19;;;;;;;8.87;2.30;;;;;;;9.87;100.00;100187.81;5053704;28;20233;-72
2024/01/24 06:47:48;;;;;;;7.23;2.37;;;;;;;9.81;100.00;100198.34;5053334;28;20672;-72
2024/01/24 06:50:18;;;;;;;10.60;2.40;;;;;;;9.80;100.00;100185.97;5053336;28;20743;-72
2024/01/24 06:52:46;;;;;;;7.03;2.03;;;;;;;9.79;100.00;100187.00;5054197;28;20233;-72
2024/01/24 06:55:16;;;;;;;5.90;2.20;;;;;;;9.79;100.00;100189.69;5053545;28;20206;-71
2024/01/24 06:57:46;;;;;;;10.87;2.30;;;;;;;9.79;100.00;100195.03;5053458;28;20233;-71
2024/01/24 07:00:16;;;;;;;10.57;2.20;;;;;;;9.75;100.00;100205.22;5053808;28;20630;-71
2024/01/24 07:02:44;;;;;;;9.70;2.40;;;;;;;9.75;100.00;100205.22;5053383;28;20235;-71
2024/01/24 07:05:13;;;;;;;9.60;2.90;;;;;;;9.74;100.00;100206.22;5053124;28;20218;-71
2024/01/24 07:07:42;;;;;;;9.37;2.90;;;;;;;9.69;100.00;100222.75;5052269;28;20676;-71
2024/01/24 07:10:11;;;;;;;11.90;2.77;;;;;;;9.75;100.00;100215.06;5053373;28;20260;-71
2024/01/24 07:12:45;;;;;;;9.27;3.30;;;;;;;9.75;100.00;100209.72;5053280;28;20206;-71
2024/01/24 07:15:17;;;;;;;14.77;3.60;;;;;;;9.74;100.00;100208.06;5053257;28;20711;-71
2024/01/24 07:17:46;;;;;;;10.73;3.47;;;;;;;9.72;100.00;100231.44;5053301;28;20194;-71
2024/01/24 07:20:18;;;;;;;13.20;3.03;;;;;;;9.73;100.00;100236.63;5053297;28;20753;-71
2024/01/24 07:22:46;;;;;;;12.90;2.60;;;;;;;9.73;100.00;100233.09;5053230;28;20274;-71
2024/01/24 07:25:15;;;;;;;11.43;3.03;;;;;;;9.68;100.00;100250.50;5053165;28;20743;-71
2024/01/24 07:27:46;;;;;;;10.87;3.30;;;;;;;9.65;100.00;100258.84;5053203;28;20206;-71
2024/01/24 07:30:16;;;;;;;13.63;3.60;;;;;;;9.59;100.00;100264.84;5053440;28;20256;-71
2024/01/24 07:32:45;;;;;;;12.80;3.53;;;;;;;9.53;100.00;100270.84;5053388;28;20202;-71
2024/01/24 07:35:13;;;;;;;10.83;3.10;;;;;;;9.52;100.00;100274.50;5052893;28;20229;-71
2024/01/24 07:37:44;;;;;;;17.77;3.57;;;;;;;9.51;100.00;100293.41;5052838;28;20664;-71
2024/01/24 07:40:14;;;;;;;16.60;3.80;;;;;;;9.49;100.00;100293.56;5052988;28;20229;-71
2024/01/24 07:42:43;;;;;;;17.83;4.77;;;;;;;9.46;100.00;100291.22;5053300;28;20218;-71
2024/01/24 07:45:12;;;;;;;17.43;3.90;;;;;;;9.44;100.00;100313.75;5052782;28;20256;-71
2024/01/24 07:47:43;;;;;;;16.60;3.93;;;;;;;9.44;100.00;100309.25;5053010;28;20231;-71
2024/01/24 07:50:13;;;;;;;22.30;5.67;;;;;;;9.43;100.00;100286.19;5053030;28;20216;-71
2024/01/24 07:52:42;;;;;;;14.60;4.13;;;;;;;9.45;100.00;100326.13;5052924;28;20293;-71
2024/01/24 07:55:11;;;;;;;18.00;4.87;;;;;;;9.44;100.00;100322.63;5052630;28;20210;-71
2024/01/24 07:57:41;;;;;;;22.03;5.30;;;;;;;9.44;100.00;100341.31;5052922;28;20206;-71
2024/01/24 08:00:16;;;;;;;22.73;5.33;;;;;;;9.42;100.00;100358.50;5052804;28;20237;-71
2024/01/24 08:02:47;;;;;;;27.77;4.80;;;;;;;9.41;100.00;100351.50;5052842;28;20281;-71
2024/01/24 08:05:19;;;;;;;19.30;4.57;;;;;;;9.39;100.00;100348.97;5052789;28;20559;-71
2024/01/24 08:07:48;;;;;;;20.20;4.53;;;;;;;9.36;100.00;100362.66;5053059;28;20212;-71
2024/01/24 08:10:18;;;;;;;24.60;5.07;;;;;;;9.35;100.00;100355.63;5052475;28;20695;-71
2024/01/24 08:12:49;;;;;;;23.87;5.03;;;;;;;9.33;100.00;100348.78;5052735;28;20226;-71
2024/01/24 08:15:18;;;;;;;24.07;5.60;;;;;;;9.30;100.00;100344.63;5052730;28;20732;-71
2024/01/24 08:17:48;;;;;;;23.10;5.20;;;;;;;9.30;100.00;100349.94;5052388;28;20202;-71
2024/01/24 08:20:19;;;;;;;19.87;4.40;;;;;;;9.33;100.00;100346.97;5055829;28;20670;-71
2024/01/24 08:22:48;;;;;;;22.40;4.53;;;;;;;9.34;99.08;100345.97;5056374;28;20261;-71
2024/01/24 08:25:17;;;;;;;23.93;5.10;;;;;;;9.35;98.71;100352.16;5055983;28;20664;-71
2024/01/24 08:27:45;;;;;;;25.50;5.80;;;;;;;9.34;97.44;100356.66;5056253;28;20210;-71
2024/01/24 08:30:15;;;;;;;19.50;5.37;;;;;;;9.37;96.80;100352.81;5055959;28;20691;-71
2024/01/24 08:32:44;;;;;;;26.20;5.70;;;;;;;9.40;94.15;100345.31;5056123;28;20579;-71
2024/01/24 08:35:15;;;;;;;28.90;6.03;;;;;;;9.46;93.03;100366.03;5056064;28;20237;-71
2024/01/24 08:37:44;;;;;;;26.93;6.03;;;;;;;9.50;91.29;100377.22;5056164;28;20190;-71
2024/01/24 08:40:13;;;;;;;28.63;5.17;;;;;;;9.53;90.59;100385.75;5055999;28;20226;-71
2024/01/24 08:42:43;;;;;;;22.17;5.27;;;;;;;9.53;88.72;100377.75;5055920;28;20237;-71
2024/01/24 08:45:12;;;;;;;25.77;5.77;;;;;;;9.54;89.05;100376.75;5055983;28;20206;-71
2024/01/24 08:47:40;;;;;;;23.50;5.43;;;;;;;9.52;89.64;100394.78;5055913;28;20202;-71
2024/01/24 08:50:10;;;;;;;22.77;5.40;;;;;;;9.58;88.34;100406.66;5055866;28;20212;-71
2024/01/24 08:52:40;;;;;;;26.60;5.57;;;;;;;9.54;88.41;100395.47;5055783;28;20285;-71
2024/01/24 08:55:10;;;;;;;23.47;5.23;;;;;;;9.58;87.09;100399.50;5055430;28;20676;-71
2024/01/24 08:57:39;;;;;;;28.60;5.33;;;;;;;9.55;87.55;100415.84;5056067;28;20292;-71
2024/01/24 09:00:09;;;;;;;23.30;5.97;;;;;;;9.54;88.30;100416.84;5055571;28;20236;-71
2024/01/24 09:02:38;;;;;;;22.27;5.40;;;;;;;9.55;86.17;100428.38;5055504;28;20214;-71
2024/01/24 09:05:08;;;;;;;26.47;5.87;;;;;;;9.57;86.12;100442.41;5055909;28;20241;-71
2024/01/24 09:07:39;;;;;;;26.20;5.63;;;;;;;9.52;87.68;100418.81;5055555;28;20209;-71
2024/01/24 09:10:08;;;;;;;24.43;5.40;;;;;;;9.55;86.05;100431.03;5055729;28;20291;-71
2024/01/24 09:12:37;;;;;;;19.40;5.67;;;;;;;9.60;84.30;100426.88;5055023;28;20552;-71
2024/01/24 09:15:07;;;;;;;23.03;5.73;;;;;;;9.59;85.53;100435.03;5055337;28;20225;-71
2024/01/24 09:17:36;;;;;;;24.93;5.33;;;;;;;9.58;84.94;100431.56;5055321;28;20217;-71
2024/01/24 09:20:06;;;;;;;25.10;5.67;;;;;;;9.57;85.19;100439.72;5055253;28;20226;-71
2024/01/24 09:22:36;;;;;;;25.07;5.23;;;;;;;9.55;86.27;100439.91;5055244;28;20226;-71
2024/01/24 09:25:07;;;;;;;25.87;5.63;;;;;;;9.51;86.71;100438.56;5055241;28;20229;-71
2024/01/24 09:27:40;;;;;;;21.77;5.10;;;;;;;9.58;83.65;100450.28;5055215;28;20193;-71
2024/01/24 09:30:09;;;;;;;22.80;5.37;;;;;;;9.59;83.79;100451.91;5054195;28;20213;-71
2024/01/24 09:32:38;;;;;;;28.00;5.33;;;;;;;9.59;83.37;100446.56;5054701;28;20680;-71
2024/01/24 09:35:07;;;;;;;26.73;5.00;;;;;;;9.61;82.52;100465.97;5054914;28;20222;-71
2024/01/24 09:37:36;;;;;;;24.30;5.47;;;;;;;9.64;82.18;100436.25;5054919;28;20301;-71
2024/01/24 09:40:08;;;;;;;25.70;5.43;;;;;;;9.67;82.14;100449.28;5054900;28;20280;-71
2024/01/24 09:42:45;;;;;;;23.00;5.33;;;;;;;9.66;81.39;100452.97;5054855;28;20194;-71
2024/01/24 09:45:17;;;;;;;27.10;5.00;;;;;;;9.63;82.94;100437.25;5054913;28;20285;-71
2024/01/24 09:47:48;;;;;;;19.20;4.70;;;;;;;9.57;84.85;100453.09;5054844;28;20222;-71
2024/01/24 09:50:17;;;;;;;21.60;4.80;;;;;;;9.53;85.17;100463.25;5054760;28;20190;-71
2024/01/24 09:52:46;;;;;;;22.60;4.50;;;;;;;9.51;85.24;100464.44;5054578;28;20225;-71
2024/01/24 09:55:20;;;;;;;20.60;5.23;;;;;;;9.53;84.76;100476.63;5054623;28;20195;-71
2024/01/24 09:57:49;;;;;;;23.60;5.43;;;;;;;9.45;86.12;100460.53;5054579;28;20202;-71
2024/01/24 10:00:18;;;;;;;21.10;5.07;;;;;;;9.42;88.49;100479.56;5054468;28;20222;-71
2024/01/24 10:02:48;;;;;;;22.60;5.43;;;;;;;9.39;89.51;100481.72;5054346;28;20222;-71
2024/01/24 10:05:19;;;;;;;26.10;5.90;;;;;;;9.33;90.27;100469.84;5054441;28;20206;-71
2024/01/24 10:07:48;;;;;;;21.90;5.80;;;;;;;9.34;89.14;100484.88;5054453;28;20261;-71
2024/01/24 10:10:18;;;;;;;22.40;6.00;;;;;;;9.40;86.78;100483.41;5054302;28;20210;-71
2024/01/24 10:12:46;;;;;;;26.13;5.93;;;;;;;9.42;87.95;100500.09;5053894;28;20261;-71
2024/01/24 10:15:15;;;;;;;26.60;5.33;;;;;;;9.32;89.95;100492.22;5054240;28;20206;-71
2024/01/24 10:17:46;;;;;;;26.20;5.67;;;;;;;9.24;91.55;100497.53;5054224;28;20242;-71
2024/01/24 10:20:15;;;;;;;25.30;5.80;;;;;;;9.22;93.49;100506.66;5053808;28;20301;-71
2024/01/24 10:22:45;;;;;;;28.53;5.83;;;;;;;9.19;92.40;100513.16;5054032;28;20206;-71
2024/01/24 10:25:14;;;;;;;21.13;5.40;;;;;;;9.24;88.36;100524.22;5054923;28;20192;-71
2024/01/24 10:27:44;;;;;;;28.10;7.50;;;;;;;9.22;89.62;100507.50;5054017;28;20210;-71
2024/01/24 10:30:15;;;;;;;26.20;6.20;;;;;;;9.21;89.80;100527.22;5053987;28;20209;-71
2024/01/24 10:32:45;;;;;;;29.97;5.93;;;;;;;9.20;89.31;100528.22;5053542;28;20210;-71
2024/01/24 10:35:14;;;;;;;35.87;6.57;;;;;;;9.19;88.73;100523.84;5053453;28;20210;-71
2024/01/24 10:37:43;;;;;;;25.50;6.27;;;;;;;9.20;87.81;100524.69;5053574;28;20206;-71
2024/01/24 10:40:15;;;;;;;31.80;6.73;;;;;;;9.27;85.42;100515.91;5053755;28;20254;-71
2024/01/24 10:42:49;;;;;;;33.73;6.37;;;;;;;9.26;86.33;100511.53;5053597;28;20240;-71
2024/01/24 10:45:21;;;;;;;25.03;5.63;;;;;;;9.29;85.17;100518.41;5053467;28;20561;-71
2024/01/24 10:47:52;;;;;;;21.40;5.23;;;;;;;9.31;85.22;100509.25;5053387;28;20202;-71
2024/01/24 10:50:21;;;;;;;28.67;5.93;;;;;;;9.36;84.22;100522.97;5053626;28;20248;-71
2024/01/24 10:52:51;;;;;;;26.43;5.70;;;;;;;9.37;83.64;100511.28;5053530;28;20275;-71
2024/01/24 10:55:23;;;;;;;23.77;6.73;;;;;;;9.41;82.36;100523.34;5053617;28;20286;-71
2024/01/24 10:57:54;;;;;;;26.03;6.23;;;;;;;9.39;83.07;100519.97;5053523;28;20240;-71
2024/01/24 11:00:25;;;;;;;27.20;6.17;;;;;;;9.43;81.13;100537.38;5053487;28;20210;-71
2024/01/24 11:02:54;;;;;;;22.40;6.10;;;;;;;9.37;82.87;100527.31;5053467;28;20241;-71
2024/01/24 11:05:34;;;;;;;27.30;6.30;;;;;;;9.37;81.45;100531.81;5053160;28;20676;-71
2024/01/24 11:08:07;;;;;;;22.87;5.90;;;;;;;9.44;80.15;100549.75;5053080;28;20192;-71
2024/01/24 11:10:39;;;;;;;22.87;6.07;;;;;;;9.41;80.73;100547.38;5051581;28;20186;-71
2024/01/24 11:13:11;;;;;;;25.83;6.57;;;;;;;9.43;80.07;100537.38;5051324;28;20229;-71
2024/01/24 11:15:41;;;;;;;26.70;5.53;;;;;;;9.44;79.56;100552.41;5051207;28;20190;-71
2024/01/24 11:18:25;;;;;;;24.23;5.10;;;;;;;9.43;80.36;100556.06;5051140;28;20667;-71
2024/01/24 11:20:56;;;;;;;29.53;5.93;;;;;;;9.42;80.42;100553.53;5051103;28;20581;-71
2024/01/24 11:23:34;;;;;;;28.97;6.20;;;;;;;9.37;81.18;100555.88;5051213;28;20226;-71
2024/01/24 11:26:03;;;;;;;26.57;5.80;;;;;;;9.35;80.88;100564.03;5053203;28;20301;-71
2024/01/24 11:28:33;;;;;;;24.00;5.40;;;;;;;9.36;78.98;100557.69;5053222;28;20213;-71
2024/01/24 11:31:01;;;;;;;27.13;6.30;;;;;;;9.37;80.21;100547.84;5053209;28;20245;-71
2024/01/24 11:33:30;;;;;;;22.87;5.80;;;;;;;9.48;77.91;100558.28;5053320;28;20234;-71